TimeEDT,TemperatureF,Dew PointF,Humidity,Sea Level PressureIn,VisibilityMPH,Wind Direction,Wind SpeedMPH,Gust SpeedMPH,PrecipitationIn,Events,Conditions,WindDirDegrees,DateUTC
12:28 AM,18.0,12.9,81,29.96,1.0,NW,8.1,-,0.04,Snow,Light Snow,320,2013-03-17 04:28:00
12:38 AM,18.0,12.9,81,29.97,1.2,NNW,9.2,-,0.04,Snow,Light Snow,330,2013-03-17 04:38:00
1:02 AM,17.1,12.0,81,30.00,0.8,NNW,13.8,24.2,0.01,Snow,Light Snow,340,2013-03-17 05:02:00
1:17 AM,16.0,10.0,77,30.02,1.5,North,9.2,23.0,0.01,Snow,Light Snow,350,2013-03-17 05:17:00
1:27 AM,15.1,5.0,64,30.02,3.0,North,10.4,24.2,0.01,Snow,Light Snow,350,2013-03-17 05:27:00
1:37 AM,14.0,3.9,64,30.02,9.0,North,9.2,-,0.01,,Mostly Cloudy,10,2013-03-17 05:37:00
1:55 AM,14.0,1.9,59,30.07,10.0,North,12.7,18.4,0.01,,Mostly Cloudy,350,2013-03-17 05:55:00
2:55 AM,12.0,-0.0,59,30.12,10.0,North,8.1,-,N/A,,Scattered Clouds,360,2013-03-17 06:55:00
3:55 AM,12.0,-0.0,59,30.15,10.0,North,10.4,-,0.00,,Overcast,360,2013-03-17 07:55:00
4:55 AM,10.0,-2.9,56,30.18,10.0,NNE,9.2,-,0.00,,Overcast,20,2013-03-17 08:55:00
5:55 AM,8.1,-5.1,55,30.22,10.0,North,11.5,-,N/A,,Partly Cloudy,360,2013-03-17 09:55:00
6:55 AM,6.1,-5.1,60,30.25,10.0,North,4.6,-,N/A,,Clear,10,2013-03-17 10:55:00
7:55 AM,3.9,-6.0,64,30.28,10.0,North,4.6,-,0.00,,Clear,350,2013-03-17 11:55:00
8:55 AM,6.1,-5.1,60,30.29,10.0,NNE,6.9,-,0.00,,Clear,20,2013-03-17 12:55:00
9:55 AM,10.0,-5.1,51,30.31,10.0,North,3.5,-,0.00,,Clear,10,2013-03-17 13:55:00
10:55 AM,10.9,-4.0,51,30.32,10.0,Variable,3.5,-,0.01,,Clear,0,2013-03-17 14:55:00
11:55 AM,12.0,-2.9,51,30.34,10.0,SSW,3.5,-,0.00,,Clear,210,2013-03-17 15:55:00
12:55 PM,17.1,-2.0,43,30.34,10.0,Variable,3.5,-,0.00,,Clear,0,2013-03-17 16:55:00
1:55 PM,17.1,-2.0,43,30.35,10.0,West,4.6,-,0.00,,Clear,280,2013-03-17 17:55:00
2:55 PM,17.1,1.0,50,30.32,10.0,SW,10.4,-,0.00,,Clear,230,2013-03-17 18:55:00
3:55 PM,18.0,-0.9,44,30.33,10.0,SW,4.6,-,0.00,,Clear,220,2013-03-17 19:55:00
4:55 PM,19.9,1.0,44,30.31,10.0,Calm,Calm,-,N/A,,Clear,0,2013-03-17 20:55:00
5:55 PM,19.9,-0.0,42,30.32,10.0,NW,4.6,-,0.00,,Clear,310,2013-03-17 21:55:00
6:55 PM,19.0,-0.9,42,30.29,10.0,Calm,Calm,-,0.00,,Clear,0,2013-03-17 22:55:00
7:55 PM,18.0,1.9,50,30.29,10.0,East,3.5,-,0.00,,Clear,90,2013-03-17 23:55:00
8:55 PM,15.1,-0.0,51,30.30,10.0,East,4.6,-,N/A,,Clear,100,2013-03-18 00:55:00
9:55 PM,14.0,-0.9,52,30.29,10.0,ESE,5.8,-,N/A,,Clear,120,2013-03-18 01:55:00
10:55 PM,12.0,1.0,61,30.28,10.0,SE,8.1,-,N/A,,Clear,130,2013-03-18 02:55:00
11:55 PM,10.0,-0.0,64,30.27,10.0,East,4.6,-,N/A,,Clear,100,2013-03-18 03:55:00